Time;durP1;ratioP1;P1;durP2;ratioP2;P2;SDS_P1;SDS_P2;PMS_P1;PMS_P2;Temp;Humidity;BMP_temperature;BMP_pressure;BME280_temperature;BME280_humidity;BME280_pressure;Samples;Min_cycle;Max_cycle;Signal;HPM_P1;HPM_P2
2023/09/13 04:00:47;;;;;;;3.10;2.03;;;18.70;97.30;;;;;;6043260;23;21396;31
2023/09/13 04:03:18;;;;;;;2.90;1.93;;;18.70;97.30;;;;;;4970153;28;21021;-91
2023/09/13 04:05:43;;;;;;;1.70;1.10;;;18.60;97.30;;;;;;4964748;28;20434;-90
2023/09/13 04:08:09;;;;;;;3.63;2.60;;;18.60;97.30;;;;;;4972311;28;20489;-91
2023/09/13 04:10:34;;;;;;;5.40;3.03;;;18.60;97.30;;;;;;4972440;28;20191;-91
2023/09/13 04:13:00;;;;;;;2.00;1.70;;;18.50;97.30;;;;;;4972464;28;20205;-90
2023/09/13 04:15:26;;;;;;;1.57;1.40;;;18.50;97.30;;;;;;4972688;28;20189;-91
2023/09/13 04:17:51;;;;;;;1.93;1.90;;;18.50;97.30;;;;;;4972611;28;20182;-91
2023/09/13 04:20:17;;;;;;;1.70;1.50;;;18.50;97.30;;;;;;4972491;28;20189;-91
2023/09/13 04:22:42;;;;;;;2.30;1.37;;;18.40;97.30;;;;;;4971422;28;20688;-92
2023/09/13 04:25:09;;;;;;;1.90;1.80;;;18.40;97.30;;;;;;4972409;28;20189;-92
2023/09/13 04:27:34;;;;;;;4.33;2.13;;;18.40;97.30;;;;;;4972007;28;20237;-91
2023/09/13 04:30:00;;;;;;;2.47;1.33;;;18.40;97.30;;;;;;4967137;28;20454;-90
2023/09/13 04:32:26;;;;;;;2.83;1.87;;;18.40;97.30;;;;;;4961513;28;20209;-90
2023/09/13 04:34:52;;;;;;;1.30;1.20;;;18.30;97.30;;;;;;4971978;28;20194;-90
2023/09/13 04:37:18;;;;;;;2.10;1.60;;;18.30;97.30;;;;;;4963669;28;20665;-90
2023/09/13 04:39:44;;;;;;;6.00;1.70;;;18.30;97.30;;;;;;4971167;28;20430;-90
2023/09/13 04:42:11;;;;;;;3.20;2.17;;;18.30;97.30;;;;;;4971728;28;20449;-90
2023/09/13 04:44:45;;;;;;;1.87;1.77;;;18.30;97.30;;;;;;4972258;28;20190;-88
2023/09/13 04:47:14;;;;;;;3.10;1.97;;;18.30;97.30;;;;;;4967574;28;20497;-90
2023/09/13 04:50:14;;;;;;;1.67;1.57;;;18.30;97.30;;;;;;4953499;28;20463;-89
2023/09/13 04:52:43;;;;;;;3.40;3.00;;;18.30;97.30;;;;;;4958580;28;20509;-90
2023/09/13 04:55:18;;;;;;;3.20;1.90;;;18.20;97.30;;;;;;4961968;28;20428;-90
2023/09/13 04:57:53;;;;;;;3.33;1.57;;;18.20;97.30;;;;;;4963812;28;20469;-90
2023/09/13 05:00:26;;;;;;;2.13;1.83;;;18.20;97.30;;;;;;4962927;28;20438;-89
2023/09/13 05:03:03;;;;;;;2.23;1.50;;;18.20;97.30;;;;;;4961295;28;20477;-91
2023/09/13 05:05:32;;;;;;;1.70;1.40;;;18.20;97.30;;;;;;4954067;28;20426;-90
2023/09/13 05:08:00;;;;;;;1.83;1.73;;;18.20;97.30;;;;;;4953300;28;20458;-90
2023/09/13 05:10:33;;;;;;;1.67;1.40;;;18.20;97.30;;;;;;4953603;28;20422;-90
2023/09/13 05:13:01;;;;;;;6.27;2.57;;;18.20;97.30;;;;;;4953656;28;20414;-90
2023/09/13 05:15:49;;;;;;;1.60;1.57;;;18.20;97.30;;;;;;4954987;28;20955;-91
2023/09/13 05:18:24;;;;;;;3.50;2.63;;;18.20;97.30;;;;;;4959780;28;20476;-90
2023/09/13 05:20:51;;;;;;;2.10;1.60;;;18.20;97.30;;;;;;4964968;28;20460;-90
2023/09/13 05:23:19;;;;;;;1.50;1.40;;;18.20;97.30;;;;;;4956378;28;20455;-90
2023/09/13 05:26:03;;;;;;;1.83;1.73;;;18.10;97.30;;;;;;4955862;28;20480;-89
2023/09/13 05:28:33;;;;;;;1.80;1.40;;;18.10;97.30;;;;;;4960782;28;20463;-89
2023/09/13 05:31:05;;;;;;;2.70;1.90;;;18.10;97.30;;;;;;4973427;28;20437;-90
2023/09/13 05:33:31;;;;;;;3.70;1.70;;;18.10;97.30;;;;;;4973061;28;20422;-89
2023/09/13 05:36:19;;;;;;;2.83;2.27;;;18.10;97.30;;;;;;4973167;28;20868;-90
2023/09/13 05:38:51;;;;;;;4.43;2.67;;;18.20;97.30;;;;;;4964556;28;20265;-90
2023/09/13 05:41:20;;;;;;;1.97;1.67;;;18.10;97.30;;;;;;4973422;28;20438;-90
2023/09/13 05:43:54;;;;;;;3.27;2.30;;;18.10;97.30;;;;;;4965036;28;20434;-90
2023/09/13 05:46:22;;;;;;;1.40;1.30;;;18.10;97.30;;;;;;4972809;28;20421;-89
2023/09/13 05:48:51;;;;;;;2.27;2.10;;;18.10;97.30;;;;;;4973101;28;20484;-90
2023/09/13 05:51:19;;;;;;;2.80;2.20;;;18.10;97.30;;;;;;4972909;28;21055;-90
2023/09/13 05:53:44;;;;;;;1.60;1.50;;;18.20;97.30;;;;;;4973103;28;20693;-90
2023/09/13 05:56:11;;;;;;;1.80;1.40;;;18.20;97.30;;;;;;4973084;28;20437;-90
2023/09/13 05:58:37;;;;;;;1.87;1.33;;;18.20;97.30;;;;;;4973027;28;20573;-90
2023/09/13 06:01:02;;;;;;;4.03;2.20;;;18.20;97.30;;;;;;4964718;28;20493;-89
2023/09/13 06:03:30;;;;;;;2.67;2.53;;;18.20;97.30;;;;;;4964791;28;20447;-89
2023/09/13 06:05:56;;;;;;;3.37;2.27;;;18.20;97.30;;;;;;4972691;28;20186;-90
2023/09/13 06:08:22;;;;;;;4.03;3.03;;;18.20;97.30;;;;;;4972940;28;20620;-90
2023/09/13 06:10:47;;;;;;;4.73;2.07;;;18.20;97.30;;;;;;4972583;28;20486;-91
2023/09/13 06:13:15;;;;;;;2.73;2.53;;;18.30;97.30;;;;;;4968412;28;20175;-90
2023/09/13 06:15:41;;;;;;;1.93;1.80;;;18.30;97.30;;;;;;4973523;28;20186;-91
2023/09/13 06:18:14;;;;;;;2.77;2.50;;;18.30;97.30;;;;;;4978393;28;20462;-89
2023/09/13 06:20:43;;;;;;;1.30;1.20;;;18.30;97.30;;;;;;4981080;28;20464;-91
2023/09/13 06:23:33;;;;;;;3.10;2.20;;;18.30;97.30;;;;;;4975335;28;20438;-91
2023/09/13 06:26:02;;;;;;;2.30;1.97;;;18.40;97.30;;;;;;4982449;28;20418;-89
2023/09/13 06:28:32;;;;;;;1.90;1.80;;;18.40;97.30;;;;;;4982844;28;20468;-91
2023/09/13 06:31:01;;;;;;;3.40;1.37;;;18.50;97.30;;;;;;4975245;28;20438;-87
2023/09/13 06:33:32;;;;;;;2.97;1.27;;;18.50;97.30;;;;;;4974472;28;20423;-91
2023/09/13 06:36:01;;;;;;;1.97;1.77;;;18.50;97.30;;;;;;4967947;28;20474;-89
2023/09/13 06:38:44;;;;;;;1.60;1.33;;;18.50;97.30;;;;;;4970579;28;20430;-90
2023/09/13 06:41:12;;;;;;;1.40;1.30;;;18.50;97.30;;;;;;4966726;28;20433;-90
2023/09/13 06:43:43;;;;;;;2.63;2.07;;;18.50;97.30;;;;;;4965896;28;20465;-89
2023/09/13 06:46:12;;;;;;;4.30;1.97;;;18.60;97.30;;;;;;4977005;28;20428;-89
2023/09/13 06:48:40;;;;;;;3.60;3.30;;;18.60;97.30;;;;;;4972601;28;20417;-89
2023/09/13 06:51:11;;;;;;;2.43;1.63;;;18.60;97.30;;;;;;4972479;28;20488;-89
2023/09/13 06:53:41;;;;;;;2.17;1.97;;;18.70;97.30;;;;;;4972454;28;20797;-89
2023/09/13 06:56:14;;;;;;;1.70;1.60;;;18.70;97.30;;;;;;4972181;28;20533;-89
2023/09/13 06:58:42;;;;;;;3.47;1.50;;;18.70;97.30;;;;;;4971547;28;20449;-89
2023/09/13 07:01:07;;;;;;;1.97;1.70;;;18.80;97.30;;;;;;4971365;28;20466;-90
2023/09/13 07:03:33;;;;;;;1.30;1.23;;;18.80;97.30;;;;;;4972118;28;20797;-89
2023/09/13 07:05:58;;;;;;;2.30;1.93;;;18.90;97.30;;;;;;4972858;28;20555;-89
2023/09/13 07:08:24;;;;;;;1.67;1.57;;;19.00;97.30;;;;;;4963505;28;20691;-89
2023/09/13 07:10:49;;;;;;;1.83;1.73;;;19.00;97.30;;;;;;4972719;28;20217;-90
2023/09/13 07:13:15;;;;;;;2.00;1.90;;;19.10;97.30;;;;;;4972049;28;20186;-89
2023/09/13 07:15:40;;;;;;;1.90;1.80;;;19.10;97.30;;;;;;4971553;28;20182;-89
2023/09/13 07:18:08;;;;;;;1.90;1.43;;;19.10;97.30;;;;;;4973172;28;20300;-87
2023/09/13 07:20:34;;;;;;;1.30;1.20;;;19.20;97.30;;;;;;4971198;28;20233;-89
2023/09/13 07:23:00;;;;;;;4.73;1.77;;;19.20;97.30;;;;;;4971377;28;20414;-89
2023/09/13 07:25:25;;;;;;;1.60;1.50;;;19.20;97.30;;;;;;4974008;28;20257;-89
2023/09/13 07:27:51;;;;;;;2.10;2.00;;;19.30;97.30;;;;;;4974676;28;20560;-89
2023/09/13 07:30:24;;;;;;;1.40;1.30;;;19.30;97.30;;;;;;4974775;28;20660;-89
2023/09/13 07:32:49;;;;;;;1.43;1.40;;;19.30;97.30;;;;;;4974446;28;20278;-91
2023/09/13 07:35:15;;;;;;;3.70;2.10;;;19.30;97.30;;;;;;4969120;28;20513;-90
2023/09/13 07:37:41;;;;;;;1.30;1.23;;;19.40;97.30;;;;;;4972426;28;20186;-89
2023/09/13 07:40:07;;;;;;;3.47;3.27;;;19.30;97.30;;;;;;4974456;28;20672;-89
2023/09/13 07:42:32;;;;;;;2.40;2.00;;;19.40;97.30;;;;;;4975441;28;20206;-89
2023/09/13 07:44:59;;;;;;;1.83;1.70;;;19.40;97.30;;;;;;4974278;28;20800;-88
2023/09/13 07:47:27;;;;;;;1.73;1.67;;;19.40;97.30;;;;;;4973051;28;20206;-89
2023/09/13 07:49:52;;;;;;;1.07;1.00;;;19.50;97.30;;;;;;4973859;28;20501;-90
2023/09/13 07:52:18;;;;;;;4.13;1.60;;;19.50;97.30;;;;;;4971363;28;20514;-89
2023/09/13 07:54:44;;;;;;;1.77;1.70;;;19.50;97.30;;;;;;4973725;28;20182;-88
2023/09/13 07:57:09;;;;;;;2.77;1.90;;;19.60;97.30;;;;;;4973614;28;20183;-88
2023/09/13 07:59:35;;;;;;;1.63;1.53;;;19.60;97.30;;;;;;4974736;28;20191;-88
2023/09/13 08:02:00;;;;;;;4.03;3.23;;;19.70;97.30;;;;;;4970143;28;20238;-88
2023/09/13 08:04:26;;;;;;;1.93;1.83;;;19.80;97.30;;;;;;4969722;28;20191;-88
2023/09/13 08:06:51;;;;;;;6.13;4.30;;;19.80;97.30;;;;;;4973059;28;20213;-89
2023/09/13 08:09:17;;;;;;;1.83;1.40;;;19.80;97.30;;;;;;4973823;28;20177;-89
2023/09/13 08:11:45;;;;;;;1.50;1.40;;;19.80;97.30;;;;;;4973325;28;20249;-88
2023/09/13 08:14:10;;;;;;;3.80;1.60;;;19.80;97.30;;;;;;4968694;28;20187;-88
2023/09/13 08:16:36;;;;;;;1.70;1.40;;;19.80;97.30;;;;;;4969889;28;20814;-88
2023/09/13 08:19:02;;;;;;;2.67;1.60;;;19.90;97.30;;;;;;4973078;28;20218;-88
2023/09/13 08:21:27;;;;;;;2.10;1.70;;;20.00;97.30;;;;;;4973231;28;20203;-88
2023/09/13 08:23:53;;;;;;;2.60;1.47;;;20.00;97.30;;;;;;4973179;28;20668;-88
2023/09/13 08:26:18;;;;;;;1.70;1.23;;;20.10;97.30;;;;;;4973438;28;20218;-89
2023/09/13 08:28:44;;;;;;;1.90;1.80;;;20.10;97.30;;;;;;4972357;28;20182;-90
2023/09/13 08:31:10;;;;;;;0.90;0.90;;;20.00;97.30;;;;;;4967403;28;20600;-88
2023/09/13 08:33:36;;;;;;;1.13;1.03;;;20.10;97.30;;;;;;4973029;28;20418;-88
2023/09/13 08:36:02;;;;;;;1.93;1.83;;;20.10;97.30;;;;;;4971790;28;20242;-88
2023/09/13 08:38:28;;;;;;;1.50;1.40;;;20.10;97.30;;;;;;4972603;28;20182;-88
2023/09/13 08:40:54;;;;;;;1.63;1.53;;;20.20;97.30;;;;;;4973621;28;20438;-88
2023/09/13 08:43:21;;;;;;;1.43;1.30;;;20.30;97.30;;;;;;4972889;28;20186;-87
2023/09/13 08:45:49;;;;;;;1.57;1.50;;;20.30;97.30;;;;;;4972832;28;20418;-88
2023/09/13 08:48:16;;;;;;;1.70;1.60;;;20.30;97.30;;;;;;4973309;28;20461;-88
2023/09/13 08:50:42;;;;;;;1.37;1.30;;;20.30;97.30;;;;;;4972680;28;20569;-89
2023/09/13 08:53:10;;;;;;;1.30;1.27;;;20.30;97.30;;;;;;4972939;28;20446;-87
2023/09/13 08:55:37;;;;;;;0.93;0.80;;;20.30;97.30;;;;;;4972901;28;20185;-87
2023/09/13 08:58:04;;;;;;;2.10;1.23;;;20.30;97.30;;;;;;4972458;28;20489;-86
2023/09/13 09:00:37;;;;;;;1.00;0.80;;;20.30;97.30;;;;;;4972784;28;20552;-88
2023/09/13 09:03:05;;;;;;;1.30;1.20;;;20.40;97.30;;;;;;4972504;28;20433;-87
2023/09/13 09:05:32;;;;;;;3.17;2.03;;;20.40;97.30;;;;;;4972625;28;20440;-87
2023/09/13 09:07:59;;;;;;;1.63;1.53;;;20.40;97.30;;;;;;4972738;28;20461;-87
2023/09/13 09:10:25;;;;;;;2.97;1.83;;;20.50;97.30;;;;;;4973946;28;20420;-88
2023/09/13 09:12:55;;;;;;;1.40;1.30;;;20.50;97.30;;;;;;4971788;28;20426;-87
2023/09/13 09:15:22;;;;;;;1.40;1.30;;;20.50;97.30;;;;;;4971717;28;20212;-85
2023/09/13 09:17:49;;;;;;;1.20;1.10;;;20.50;97.30;;;;;;4971969;28;20426;-88
2023/09/13 09:20:15;;;;;;;1.10;1.00;;;20.60;97.30;;;;;;4971936;28;20944;-89
2023/09/13 09:22:41;;;;;;;1.60;1.50;;;20.60;97.30;;;;;;4964010;28;20455;-87
2023/09/13 09:25:11;;;;;;;1.00;0.90;;;20.60;97.30;;;;;;4988392;28;20194;-88
2023/09/13 09:27:40;;;;;;;1.10;1.00;;;20.60;97.30;;;;;;4971557;28;20506;-88
2023/09/13 09:30:14;;;;;;;0.90;0.80;;;20.60;97.30;;;;;;4971428;28;20959;-87
2023/09/13 09:32:40;;;;;;;2.70;1.27;;;20.60;97.30;;;;;;4963467;28;20442;-88
2023/09/13 09:35:07;;;;;;;0.97;0.90;;;20.60;97.30;;;;;;4971962;28;20426;-88
2023/09/13 09:37:34;;;;;;;1.13;1.00;;;20.60;97.30;;;;;;4971747;28;20433;-87
2023/09/13 09:40:00;;;;;;;0.90;0.80;;;20.60;97.30;;;;;;4972958;28;20430;-88
2023/09/13 09:42:26;;;;;;;3.23;0.90;;;20.70;97.30;;;;;;4971465;28;20458;-87
2023/09/13 09:44:52;;;;;;;1.17;1.00;;;20.80;97.30;;;;;;4978447;28;20592;-89
2023/09/13 09:47:20;;;;;;;1.60;1.50;;;20.80;97.30;;;;;;4973042;28;20255;-87
2023/09/13 09:49:46;;;;;;;1.83;1.10;;;20.90;97.30;;;;;;4972509;28;20441;-88
2023/09/13 09:52:13;;;;;;;1.23;1.20;;;20.90;97.30;;;;;;4971390;28;20448;-88
2023/09/13 09:54:39;;;;;;;1.20;1.10;;;20.90;97.30;;;;;;4971656;28;20425;-88
2023/09/13 09:57:06;;;;;;;1.60;1.50;;;20.90;97.30;;;;;;4971367;28;20421;-87
2023/09/13 09:59:33;;;;;;;1.70;1.60;;;20.90;97.30;;;;;;4971828;28;20214;-88
2023/09/13 10:02:00;;;;;;;1.63;1.57;;;21.00;97.30;;;;;;4971227;28;20839;-87
2023/09/13 10:04:26;;;;;;;1.10;1.00;;;21.20;97.30;;;;;;4971819;28;20436;-88
2023/09/13 10:07:03;;;;;;;1.63;1.53;;;21.40;97.30;;;;;;4971834;28;20466;-87
2023/09/13 10:09:44;;;;;;;1.57;1.47;;;21.50;97.30;;;;;;4973263;28;20421;-88
2023/09/13 10:12:11;;;;;;;1.10;1.00;;;21.70;97.30;;;;;;4972571;28;20489;-87
2023/09/13 10:14:38;;;;;;;1.63;1.53;;;21.80;97.30;;;;;;4971235;28;20418;-87
2023/09/13 10:17:05;;;;;;;1.00;0.90;;;21.80;97.30;;;;;;5019652;23;20495;-68
2023/09/13 10:19:32;;;;;;;1.63;1.53;;;21.90;97.30;;;;;;4997590;28;20724;-66
2023/09/13 10:21:58;;;;;;;2.90;1.80;;;22.00;97.30;;;;;;5011179;28;21052;-67
2023/09/13 10:24:28;;;;;;;3.33;1.80;;;22.10;97.30;;;;;;5008562;28;20928;-67
2023/09/13 10:26:57;;;;;;;2.43;2.07;;;22.10;97.30;;;;;;5024779;28;20552;-67
2023/09/13 10:29:34;;;;;;;1.27;1.17;;;22.00;97.30;;;;;;5010665;28;20464;-67
2023/09/13 10:32:05;;;;;;;3.07;1.77;;;22.00;97.30;;;;;;5017475;28;21009;-67
2023/09/13 10:34:35;;;;;;;1.83;1.27;;;21.90;97.30;;;;;;5015005;28;20420;-67
2023/09/13 10:37:11;;;;;;;1.03;1.03;;;21.90;97.30;;;;;;5010186;28;20571;-67
2023/09/13 10:39:45;;;;;;;1.43;1.40;;;21.90;97.30;;;;;;5021661;28;20430;-67
2023/09/13 10:42:12;;;;;;;1.63;1.20;;;22.00;97.30;;;;;;5015498;28;21043;-66
2023/09/13 10:44:38;;;;;;;0.90;0.80;;;22.10;97.30;;;;;;5008986;28;20420;-66
2023/09/13 10:47:05;;;;;;;1.40;1.30;;;22.20;97.30;;;;;;5010997;28;20470;-67
2023/09/13 10:49:33;;;;;;;1.47;1.37;;;22.30;97.30;;;;;;5022329;28;20503;-66
2023/09/13 10:52:00;;;;;;;1.10;1.00;;;22.40;97.30;;;;;;5016827;28;20451;-66
2023/09/13 10:54:28;;;;;;;1.27;1.00;;;22.60;97.30;;;;;;5028144;28;20934;-66
2023/09/13 10:56:55;;;;;;;1.23;1.10;;;22.80;97.30;;;;;;5027841;28;20419;-66
2023/09/13 10:59:22;;;;;;;1.20;1.10;;;23.00;97.30;;;;;;5028530;28;20514;-67
2023/09/13 11:01:48;;;;;;;1.03;1.00;;;23.20;97.30;;;;;;5014337;28;20543;-66
2023/09/13 11:04:23;;;;;;;1.33;1.13;;;23.40;97.30;;;;;;5020312;28;20455;-67
2023/09/13 11:06:50;;;;;;;2.03;1.27;;;23.50;97.30;;;;;;5028360;28;20462;-67
2023/09/13 11:09:26;;;;;;;0.80;0.77;;;23.60;97.30;;;;;;5030306;28;20433;-65
2023/09/13 11:11:55;;;;;;;2.13;1.93;;;23.60;97.30;;;;;;5021965;28;20463;-66
2023/09/13 11:14:28;;;;;;;1.00;0.90;;;23.50;97.30;;;;;;5031641;28;20433;-66
2023/09/13 11:16:57;;;;;;;1.00;0.90;;;23.40;97.30;;;;;;5023227;28;20526;-66
2023/09/13 11:19:27;;;;;;;1.63;1.00;;;23.40;97.30;;;;;;5031573;28;20427;-66
2023/09/13 11:22:00;;;;;;;1.60;1.50;;;23.40;97.30;;;;;;5021344;28;20443;-67
2023/09/13 11:24:45;;;;;;;1.10;1.00;;;23.40;97.30;;;;;;5024850;28;20423;-66
2023/09/13 11:27:18;;;;;;;1.00;1.00;;;23.40;97.30;;;;;;5030091;28;20470;-66
2023/09/13 11:29:46;;;;;;;1.10;1.00;;;23.40;97.30;;;;;;5023335;28;20473;-66
2023/09/13 11:32:19;;;;;;;1.27;0.90;;;23.40;97.30;;;;;;5018963;28;20436;-66
2023/09/13 11:34:52;;;;;;;3.37;2.00;;;23.40;97.30;;;;;;5011749;28;20531;-66
2023/09/13 11:37:18;;;;;;;1.50;1.40;;;23.30;97.30;;;;;;5010193;28;20475;-66
2023/09/13 11:39:55;;;;;;;1.27;1.20;;;23.30;97.30;;;;;;5018146;28;20428;-67
2023/09/13 11:42:28;;;;;;;6.93;2.13;;;23.20;97.30;;;;;;5011540;28;20518;-66
2023/09/13 11:44:55;;;;;;;1.73;1.17;;;23.20;97.30;;;;;;5009808;28;20823;-67
2023/09/13 11:47:21;;;;;;;1.20;1.00;;;23.10;97.30;;;;;;5010076;28;20547;-66
2023/09/13 11:49:47;;;;;;;1.83;1.00;;;23.10;97.30;;;;;;5009155;28;20486;-66
2023/09/13 11:52:13;;;;;;;1.40;1.30;;;23.00;97.30;;;;;;5025918;28;20455;-66
2023/09/13 11:54:57;;;;;;;1.60;1.10;;;22.90;97.30;;;;;;5011248;28;20185;-66
2023/09/13 11:57:22;;;;;;;1.03;1.00;;;22.90;97.30;;;;;;5010248;28;20226;-66
2023/09/13 11:59:53;;;;;;;1.10;1.00;;;22.80;97.30;;;;;;5011100;28;20989;-66
2023/09/13 12:02:19;;;;;;;0.90;0.83;;;22.70;97.30;;;;;;5022795;28;20249;-66
2023/09/13 12:04:45;;;;;;;1.50;1.40;;;22.70;97.30;;;;;;5022470;28;20431;-66
2023/09/13 12:07:11;;;;;;;1.00;0.90;;;22.60;97.30;;;;;;5019079;28;20471;-67
2023/09/13 12:09:37;;;;;;;1.30;1.20;;;22.60;97.30;;;;;;5009583;28;20424;-64
2023/09/13 12:12:04;;;;;;;0.93;0.87;;;22.40;97.30;;;;;;5028459;28;20200;-64
2023/09/13 12:14:31;;;;;;;1.40;1.30;;;21.90;97.30;;;;;;5017212;28;20409;-65
2023/09/13 12:16:57;;;;;;;0.90;0.80;;;21.50;97.30;;;;;;5011012;28;20478;-65
2023/09/13 12:19:25;;;;;;;1.00;0.90;;;21.30;97.30;;;;;;5018261;28;20420;-65
2023/09/13 12:21:51;;;;;;;2.10;1.60;;;21.10;97.30;;;;;;5018546;28;20205;-66
2023/09/13 12:24:21;;;;;;;2.77;1.43;;;20.90;97.30;;;;;;5009260;28;20971;-66
2023/09/13 12:26:51;;;;;;;1.07;1.00;;;20.80;97.30;;;;;;5017709;28;20274;-67
2023/09/13 12:29:17;;;;;;;0.90;0.80;;;20.70;97.30;;;;;;5012452;28;20428;-66
2023/09/13 12:31:42;;;;;;;1.63;1.00;;;20.60;97.30;;;;;;5022538;28;20548;-66
2023/09/13 12:34:09;;;;;;;1.87;1.20;;;20.50;97.30;;;;;;5020130;28;20587;-68
2023/09/13 12:36:35;;;;;;;1.23;1.23;;;20.30;97.30;;;;;;5023144;28;20192;-66
2023/09/13 12:39:00;;;;;;;1.10;1.00;;;20.20;97.30;;;;;;5018416;28;20420;-66
2023/09/13 12:41:30;;;;;;;1.53;1.27;;;20.20;97.30;;;;;;5010379;28;20432;-67
2023/09/13 12:43:57;;;;;;;1.60;1.10;;;20.20;97.30;;;;;;5011596;28;20645;-67
2023/09/13 12:46:25;;;;;;;2.67;1.63;;;20.10;97.30;;;;;;5009328;28;20478;-67
2023/09/13 12:48:50;;;;;;;2.60;1.80;;;20.10;97.30;;;;;;5008422;28;20961;-67
2023/09/13 12:51:19;;;;;;;1.53;1.43;;;20.10;97.30;;;;;;5019388;28;20441;-67
2023/09/13 12:53:45;;;;;;;2.63;1.27;;;20.10;97.30;;;;;;5017043;28;20209;-67
2023/09/13 12:56:11;;;;;;;1.00;0.90;;;20.10;97.30;;;;;;5014919;28;20454;-67
2023/09/13 12:59:07;;;;;;;1.83;1.70;;;20.10;97.30;;;;;;5014362;28;20185;-68
2023/09/13 13:01:35;;;;;;;3.50;2.27;;;20.10;97.30;;;;;;5006865;28;20521;-67
2023/09/13 13:04:10;;;;;;;1.53;1.17;;;20.20;97.30;;;;;;5012159;28;20420;-68
2023/09/13 13:06:59;;;;;;;2.90;1.47;;;20.20;97.30;;;;;;5007330;28;20511;-68
2023/09/13 13:09:25;;;;;;;1.43;1.20;;;20.30;97.30;;;;;;5013446;28;20419;-68
2023/09/13 13:11:52;;;;;;;1.50;1.50;;;20.40;97.30;;;;;;5013254;28;20440;-68
2023/09/13 13:14:19;;;;;;;2.00;1.87;;;20.50;97.30;;;;;;5008577;28;20197;-67
2023/09/13 13:16:56;;;;;;;1.00;0.97;;;20.60;97.30;;;;;;5009605;28;20911;-67
2023/09/13 13:19:28;;;;;;;1.57;1.50;;;20.70;97.30;;;;;;5021061;28;20414;-68
2023/09/13 13:21:54;;;;;;;1.63;1.40;;;20.80;97.30;;;;;;5013651;28;20455;-67
2023/09/13 13:24:19;;;;;;;1.67;1.57;;;21.00;97.30;;;;;;5008018;28;20771;-68
2023/09/13 13:26:45;;;;;;;6.33;2.03;;;21.20;97.30;;;;;;5009876;28;20498;-67
2023/09/13 13:29:12;;;;;;;1.30;1.20;;;21.40;97.30;;;;;;5018327;28;20173;-68
2023/09/13 13:31:38;;;;;;;1.00;1.00;;;21.50;97.30;;;;;;5008353;28;20201;-67
2023/09/13 13:34:04;;;;;;;1.23;1.13;;;21.60;97.30;;;;;;5017099;28;20423;-67
2023/09/13 13:36:30;;;;;;;1.27;1.20;;;21.70;97.30;;;;;;5016675;28;20511;-68
2023/09/13 13:38:56;;;;;;;1.70;1.20;;;21.80;97.30;;;;;;5017726;28;20713;-67
2023/09/13 13:41:22;;;;;;;0.90;0.80;;;21.90;97.30;;;;;;5015866;28;20700;-67
2023/09/13 13:43:49;;;;;;;1.63;1.53;;;22.00;97.30;;;;;;5024295;28;20830;-68
2023/09/13 13:46:15;;;;;;;1.37;1.00;;;22.20;97.30;;;;;;5020233;28;20420;-68
2023/09/13 13:48:43;;;;;;;2.30;1.10;;;22.30;97.30;;;;;;5028756;28;20990;-68
2023/09/13 13:51:09;;;;;;;1.77;1.70;;;22.40;97.30;;;;;;5020445;28;20443;-68
2023/09/13 13:53:35;;;;;;;1.83;1.73;;;22.50;97.30;;;;;;5023980;28;20424;-68
2023/09/13 13:56:05;;;;;;;1.20;1.10;;;22.70;97.30;;;;;;5024098;28;20215;-68
2023/09/13 13:58:31;;;;;;;2.30;1.60;;;22.80;97.30;;;;;;5013341;28;20679;-68
2023/09/13 14:00:56;;;;;;;1.63;1.53;;;23.10;97.30;;;;;;5020479;28;20739;-68
2023/09/13 14:03:24;;;;;;;1.23;1.03;;;23.20;97.30;;;;;;5019193;28;20184;-67
2023/09/13 14:05:51;;;;;;;0.90;0.90;;;23.40;97.30;;;;;;5021610;28;20311;-69
2023/09/13 14:08:17;;;;;;;1.10;1.00;;;23.70;97.30;;;;;;5026798;28;20504;-68
2023/09/13 14:10:45;;;;;;;1.33;0.87;;;23.80;97.30;;;;;;5019218;28;20517;-67
2023/09/13 14:13:13;;;;;;;1.47;1.40;;;24.00;97.30;;;;;;5019038;28;20431;-67
2023/09/13 14:15:39;;;;;;;1.90;1.23;;;24.10;97.30;;;;;;5014182;28;20442;-68
2023/09/13 14:18:06;;;;;;;1.70;1.30;;;24.20;97.30;;;;;;5008591;28;20475;-67
2023/09/13 14:20:31;;;;;;;1.33;1.30;;;24.30;97.30;;;;;;5023933;28;20451;-68
2023/09/13 14:22:57;;;;;;;1.70;1.60;;;24.30;97.30;;;;;;5005848;28;20432;-67
2023/09/13 14:25:24;;;;;;;2.03;1.77;;;24.40;97.30;;;;;;5007315;28;20184;-67
2023/09/13 14:27:50;;;;;;;1.30;1.20;;;24.40;97.30;;;;;;5007193;28;20213;-68
2023/09/13 14:30:16;;;;;;;1.30;1.20;;;24.40;97.30;;;;;;5016925;28;20416;-68
2023/09/13 14:32:42;;;;;;;1.33;1.30;;;24.40;97.30;;;;;;5008609;28;20826;-68
2023/09/13 14:35:08;;;;;;;1.27;1.17;;;24.20;97.30;;;;;;5010508;28;20657;-68
2023/09/13 14:37:33;;;;;;;1.10;1.10;;;24.00;97.30;;;;;;5011043;28;20562;-67
2023/09/13 14:39:59;;;;;;;1.40;1.20;;;23.80;97.30;;;;;;5022004;28;20411;-67
2023/09/13 14:42:24;;;;;;;1.77;1.67;;;23.70;97.30;;;;;;5024694;28;20564;-66
2023/09/13 14:44:50;;;;;;;2.50;1.83;;;23.80;97.30;;;;;;5019071;28;20185;-68
2023/09/13 14:47:16;;;;;;;1.33;1.23;;;23.90;97.30;;;;;;5029866;28;20287;-68
2023/09/13 14:49:42;;;;;;;4.80;1.40;;;23.90;97.30;;;;;;5020612;28;20177;-67
2023/09/13 14:52:08;;;;;;;2.87;1.30;;;23.90;97.30;;;;;;5015886;28;20444;-67
2023/09/13 14:54:33;;;;;;;1.00;1.00;;;24.10;97.30;;;;;;5025257;28;20695;-66
2023/09/13 14:56:59;;;;;;;1.60;1.50;;;24.30;97.30;;;;;;5016445;28;20467;-67
2023/09/13 14:59:25;;;;;;;1.67;1.63;;;24.30;97.30;;;;;;5022564;28;20247;-67
2023/09/13 15:01:51;;;;;;;1.60;1.10;;;24.20;97.30;;;;;;5017373;28;20291;-67
2023/09/13 15:04:16;;;;;;;1.63;1.50;;;24.00;97.30;;;;;;5021916;28;20562;-67
2023/09/13 15:06:42;;;;;;;1.63;1.60;;;23.80;97.30;;;;;;5024331;28;20411;-67
2023/09/13 15:09:10;;;;;;;1.63;1.07;;;23.80;97.30;;;;;;5024506;28;20180;-67
2023/09/13 15:11:36;;;;;;;1.20;1.00;;;23.80;97.30;;;;;;5020036;28;20193;-67
2023/09/13 15:14:03;;;;;;;1.20;1.10;;;23.70;97.30;;;;;;5021519;28;20423;-67
2023/09/13 15:16:33;;;;;;;2.50;1.97;;;23.70;97.30;;;;;;5019914;28;20550;-67
2023/09/13 15:19:03;;;;;;;1.60;1.27;;;23.60;97.30;;;;;;5021231;28;20498;-67
2023/09/13 15:21:29;;;;;;;2.03;1.53;;;23.60;97.30;;;;;;5022617;28;20486;-67
2023/09/13 15:23:55;;;;;;;2.20;1.73;;;23.60;97.30;;;;;;5016615;28;20424;-66
2023/09/13 15:26:21;;;;;;;1.40;1.10;;;23.60;97.30;;;;;;5016947;28;20789;-67
2023/09/13 15:28:47;;;;;;;2.20;1.20;;;23.70;97.30;;;;;;5010529;28;20470;-67
2023/09/13 15:31:13;;;;;;;2.03;1.93;;;23.80;97.30;;;;;;5017640;28;20594;-66
2023/09/13 15:33:39;;;;;;;1.37;1.30;;;23.90;97.30;;;;;;5021069;28;20918;-67
2023/09/13 15:36:04;;;;;;;1.53;1.13;;;23.90;97.30;;;;;;5009504;28;20283;-66
2023/09/13 15:38:30;;;;;;;2.40;1.47;;;24.00;97.30;;;;;;5008328;28;20196;-67
2023/09/13 15:40:56;;;;;;;1.00;0.97;;;24.20;97.30;;;;;;5017391;28;20251;-67
2023/09/13 15:43:21;;;;;;;2.50;1.93;;;24.20;97.30;;;;;;5029717;28;20585;-66
2023/09/13 15:45:49;;;;;;;1.20;1.10;;;24.20;97.30;;;;;;5015695;28;20185;-67
2023/09/13 15:48:14;;;;;;;3.10;2.40;;;24.10;97.30;;;;;;5018563;28;20287;-67
2023/09/13 15:50:40;;;;;;;1.00;1.00;;;23.90;97.30;;;;;;5029741;28;20993;-67
2023/09/13 15:53:05;;;;;;;1.90;1.17;;;23.80;97.30;;;;;;5014886;28;20528;-67
2023/09/13 15:55:33;;;;;;;1.93;1.83;;;23.70;97.30;;;;;;5019125;28;20188;-67
2023/09/13 15:58:01;;;;;;;1.70;1.10;;;23.60;97.30;;;;;;5019192;28;20181;-67
2023/09/13 16:00:26;;;;;;;1.67;1.57;;;23.50;97.30;;;;;;5019288;28;20648;-67
2023/09/13 16:02:52;;;;;;;1.30;1.20;;;23.40;97.30;;;;;;5010830;28;20439;-66
2023/09/13 16:05:18;;;;;;;2.43;1.70;;;23.30;97.30;;;;;;5009881;28;20192;-67
2023/09/13 16:07:43;;;;;;;1.00;1.00;;;23.20;97.30;;;;;;5019001;28;20205;-67
2023/09/13 16:10:09;;;;;;;1.83;1.53;;;23.20;97.30;;;;;;5011001;28;20553;-67
2023/09/13 16:12:35;;;;;;;1.60;1.50;;;23.10;97.30;;;;;;5018830;28;20181;-67
2023/09/13 16:15:01;;;;;;;1.87;1.87;;;23.00;97.30;;;;;;5011061;28;20419;-67
2023/09/13 16:17:27;;;;;;;1.60;1.50;;;23.00;97.30;;;;;;5009657;23;20241;-83
2023/09/13 16:19:53;;;;;;;1.10;1.00;;;22.90;97.30;;;;;;4993401;28;20763;-85
2023/09/13 16:22:18;;;;;;;1.27;1.20;;;22.90;97.30;;;;;;4993054;28;20433;-85
2023/09/13 16:24:45;;;;;;;2.00;1.50;;;22.90;97.30;;;;;;4993360;28;20668;-84
2023/09/13 16:27:10;;;;;;;1.13;1.03;;;22.80;97.30;;;;;;4993123;28;20229;-85
2023/09/13 16:29:37;;;;;;;1.43;1.07;;;22.80;97.30;;;;;;4993007;28;20421;-85
2023/09/13 16:32:03;;;;;;;1.70;1.17;;;22.80;97.30;;;;;;4993036;28;20210;-85
2023/09/13 16:34:29;;;;;;;1.57;1.07;;;22.80;97.30;;;;;;4992683;28;20504;-85
2023/09/13 16:36:55;;;;;;;1.83;1.27;;;22.80;97.30;;;;;;4992744;28;20445;-84
2023/09/13 16:39:22;;;;;;;1.13;1.13;;;22.70;97.30;;;;;;4992362;28;20429;-85
2023/09/13 16:41:47;;;;;;;1.43;1.33;;;22.70;97.30;;;;;;4992980;28;20178;-84
2023/09/13 16:44:14;;;;;;;1.23;1.00;;;22.70;97.30;;;;;;4993177;28;20508;-84
2023/09/13 16:46:40;;;;;;;1.63;1.10;;;22.60;97.30;;;;;;4999394;28;20260;-85
2023/09/13 16:49:06;;;;;;;1.10;1.00;;;22.60;97.30;;;;;;4992653;28;20432;-84
2023/09/13 16:51:31;;;;;;;1.20;1.10;;;22.60;97.30;;;;;;4991391;28;20425;-85